createdAt,value
2022-09-23T00:02:36.642Z,4.97
2022-09-23T00:06:39.129Z,6.47
2022-09-23T00:10:40.710Z,6.13
2022-09-23T00:14:42.048Z,5.95
2022-09-23T00:18:44.157Z,6.72
2022-09-23T00:22:46.393Z,6.35
2022-09-23T00:26:47.749Z,6.40
2022-09-23T00:30:49.143Z,6.18
2022-09-23T00:34:51.429Z,6.15
2022-09-23T00:38:54.188Z,6.20
2022-09-23T00:42:55.569Z,5.93
2022-09-23T00:46:57.173Z,5.10
2022-09-23T00:50:58.580Z,5.55
2022-09-23T00:55:02.766Z,5.50
2022-09-23T00:59:06.534Z,6.30
2022-09-23T01:03:08.292Z,5.93
2022-09-23T01:07:09.717Z,6.00
2022-09-23T01:11:34.683Z,6.25
2022-09-23T01:15:45.991Z,5.55
2022-09-23T01:20:18.019Z,5.82
2022-09-23T01:25:01.594Z,6.05
2022-09-23T01:29:21.810Z,5.78
2022-09-23T01:33:38.214Z,6.55
2022-09-23T01:37:52.442Z,4.97
2022-09-23T01:42:02.694Z,5.93
2022-09-23T01:46:11.157Z,5.15
2022-09-23T01:50:36.572Z,5.57
2022-09-23T01:54:43.232Z,4.80
2022-09-23T01:58:54.973Z,5.20
2022-09-23T02:03:01.427Z,5.38
2022-09-23T02:07:10.074Z,5.47
2022-09-23T02:11:16.241Z,5.80
2022-09-23T02:15:35.165Z,5.22
2022-09-23T02:19:47.816Z,5.20
2022-09-23T02:23:53.346Z,5.40
2022-09-23T02:28:14.810Z,5.10
2022-09-23T02:32:48.658Z,5.45
2022-09-23T02:37:11.625Z,4.85
2022-09-23T02:41:23.008Z,4.55
2022-09-23T02:45:25.007Z,4.65
2022-09-23T02:49:29.714Z,5.35
2022-09-23T02:53:34.931Z,5.22
2022-09-23T02:57:36.357Z,5.05
2022-09-23T03:01:47.634Z,5.65
2022-09-23T03:05:56.014Z,4.60
2022-09-23T03:10:09.650Z,5.60
2022-09-23T03:14:27.998Z,5.05
2022-09-23T03:18:36.576Z,5.47
2022-09-23T03:22:47.136Z,5.55
2022-09-23T03:26:49.862Z,5.63
2022-09-23T03:30:53.011Z,5.63
2022-09-23T03:34:58.399Z,5.10
2022-09-23T03:39:08.466Z,5.32
2022-09-23T03:47:16.655Z,4.93
2022-09-23T03:51:22.536Z,5.72
2022-09-23T03:55:24.040Z,5.53
2022-09-23T03:59:26.593Z,5.18
2022-09-23T04:03:29.258Z,5.30
2022-09-23T04:07:30.753Z,4.82
2022-09-23T04:11:32.179Z,6.05
2022-09-23T04:15:33.589Z,5.40
2022-09-23T04:19:35.234Z,5.90
2022-09-23T04:23:36.827Z,5.60
2022-09-23T04:27:38.853Z,5.57
2022-09-23T04:31:40.526Z,5.45
2022-09-23T04:35:43.509Z,5.68
2022-09-23T04:39:45.001Z,5.53
2022-09-23T04:43:46.815Z,5.18
2022-09-23T04:47:48.325Z,5.40
2022-09-23T04:51:49.784Z,5.03
2022-09-23T04:55:52.266Z,5.18
2022-09-23T04:59:56.942Z,5.18
2022-09-23T05:04:02.572Z,5.50
2022-09-23T05:08:04.083Z,5.30
2022-09-23T05:12:05.931Z,6.25
2022-09-23T05:16:10.888Z,6.10
2022-09-23T05:20:13.164Z,5.38
2022-09-23T05:24:14.887Z,6.00
2022-09-23T05:28:20.221Z,5.25
2022-09-23T05:32:21.975Z,5.85
2022-09-23T05:36:24.405Z,5.25
2022-09-23T05:40:25.975Z,5.72
2022-09-23T05:44:27.541Z,6.57
2022-09-23T05:48:33.171Z,5.68
2022-09-23T05:52:34.849Z,6.25
2022-09-23T05:56:37.349Z,6.25
2022-09-23T06:00:40.914Z,6.15
2022-09-23T06:04:43.031Z,5.68
2022-09-23T06:08:45.683Z,6.20
2022-09-23T06:12:47.150Z,7.30
2022-09-23T06:16:48.667Z,7.47
2022-09-23T06:20:50.108Z,6.28
2022-09-23T06:24:51.555Z,6.03
2022-09-23T06:28:53.141Z,6.07
2022-09-23T06:32:57.102Z,6.28
2022-09-23T06:37:01.976Z,5.90
2022-09-23T06:41:12.005Z,5.43
2022-09-23T06:45:14.987Z,5.57
2022-09-23T06:49:16.561Z,5.82
2022-09-23T06:53:18.176Z,5.22
2022-09-23T06:57:19.773Z,6.50
2022-09-23T07:01:22.337Z,5.85
2022-09-23T07:05:24.120Z,6.05
2022-09-23T07:09:25.971Z,5.40
2022-09-23T07:13:29.401Z,4.70
2022-09-23T07:17:31.105Z,5.03
2022-09-23T07:21:32.541Z,4.72
2022-09-23T07:25:34.207Z,5.07
2022-09-23T07:29:46.595Z,5.60
2022-09-23T07:33:49.765Z,5.72
2022-09-23T07:37:51.231Z,5.28
2022-09-23T07:41:52.698Z,5.22
2022-09-23T07:45:54.525Z,4.82
2022-09-23T07:49:55.953Z,5.32
2022-09-23T07:53:57.403Z,5.07
2022-09-23T07:57:58.826Z,5.03
2022-09-23T08:02:00.497Z,4.78
2022-09-23T08:06:13.078Z,4.22
2022-09-23T08:10:14.662Z,4.55
2022-09-23T08:14:17.917Z,3.70
2022-09-23T08:18:19.484Z,3.88
2022-09-23T08:22:20.969Z,3.83
2022-09-23T08:26:22.670Z,3.53
2022-09-23T08:30:24.161Z,3.50
2022-09-23T08:34:27.820Z,3.42
2022-09-23T08:38:29.968Z,3.63
2022-09-23T08:42:33.686Z,3.65
2022-09-23T08:46:41.473Z,3.80
2022-09-23T08:50:54.718Z,3.17
2022-09-23T08:54:56.464Z,3.40
2022-09-23T08:59:14.801Z,3.10
2022-09-23T09:03:34.117Z,3.10
2022-09-23T09:07:40.072Z,2.88
2022-09-23T09:11:48.531Z,2.70
2022-09-23T09:16:05.715Z,3.13
2022-09-23T09:20:19.012Z,2.60
2022-09-23T09:24:34.059Z,3.50
2022-09-23T09:28:41.687Z,2.95
2022-09-23T09:33:00.700Z,3.17
2022-09-23T09:37:08.928Z,2.13
2022-09-23T09:41:18.240Z,2.50
2022-09-23T09:45:46.589Z,2.20
2022-09-23T09:50:01.961Z,2.40
2022-09-23T09:54:22.110Z,2.00
2022-09-23T09:58:25.578Z,2.00
2022-09-23T10:02:30.631Z,2.75
2022-09-23T10:06:34.733Z,1.58
2022-09-23T10:10:36.150Z,1.50
2022-09-23T10:14:37.727Z,1.70
2022-09-23T10:18:49.971Z,2.22
2022-09-23T10:22:51.529Z,1.80
2022-09-23T10:27:01.591Z,1.85
2022-09-23T10:31:15.810Z,1.30
2022-09-23T10:35:21.959Z,1.40
2022-09-23T10:39:43.011Z,1.98
2022-09-23T10:44:09.844Z,1.27
2022-09-23T10:48:38.419Z,1.55
2022-09-23T10:53:05.044Z,1.23
2022-09-23T10:57:41.111Z,1.80
2022-09-23T11:01:48.965Z,1.70
2022-09-23T11:06:22.885Z,1.50
2022-09-23T11:10:53.007Z,1.20
2022-09-23T11:19:02.122Z,1.60
2022-09-23T11:23:34.286Z,1.30
2022-09-23T11:28:13.030Z,1.58
2022-09-23T11:32:32.271Z,1.33
2022-09-23T11:36:46.995Z,2.25
2022-09-23T11:40:54.755Z,1.17
2022-09-23T11:45:02.158Z,1.17
2022-09-23T11:49:09.394Z,1.40
2022-09-23T11:53:42.582Z,1.48
2022-09-23T11:57:49.483Z,1.30
2022-09-23T12:02:20.368Z,1.40
2022-09-23T12:06:27.955Z,2.00
2022-09-23T12:10:54.719Z,1.23
2022-09-23T12:15:34.389Z,1.30
2022-09-23T12:19:57.741Z,2.85
2022-09-23T12:24:32.013Z,1.30
2022-09-23T12:28:40.863Z,1.40
2022-09-23T12:32:43.209Z,1.45
2022-09-23T12:36:45.738Z,1.60
2022-09-23T12:40:48.012Z,1.27
2022-09-23T12:44:50.559Z,0.98
2022-09-23T12:48:57.979Z,1.13
2022-09-23T12:53:34.350Z,1.10
2022-09-23T12:57:35.722Z,1.48
2022-09-23T13:01:38.495Z,1.20
2022-09-23T13:06:10.314Z,1.13
2022-09-23T13:10:22.733Z,1.00
2022-09-23T13:14:27.584Z,1.00
2022-09-23T13:18:50.049Z,1.30
2022-09-23T13:22:54.416Z,1.20
2022-09-23T13:27:06.343Z,1.27
2022-09-23T13:31:14.938Z,1.05
2022-09-23T13:35:24.506Z,1.20
2022-09-23T13:39:27.763Z,1.30
2022-09-23T13:43:55.308Z,0.95
2022-09-23T13:48:13.530Z,0.90
2022-09-23T13:52:27.482Z,1.00
2022-09-23T13:56:32.249Z,1.00
2022-09-23T14:00:36.779Z,1.00
2022-09-23T14:04:38.667Z,0.95
2022-09-23T14:08:43.941Z,1.08
2022-09-23T14:12:47.443Z,0.98
2022-09-23T14:16:51.316Z,0.93
2022-09-23T14:20:52.784Z,1.10
2022-09-23T14:24:55.708Z,1.38
2022-09-23T14:28:57.194Z,0.90
2022-09-23T14:32:59.379Z,1.10
2022-09-23T14:37:33.189Z,0.80
2022-09-23T14:41:41.267Z,0.82
2022-09-23T14:45:47.327Z,1.02
2022-09-23T14:50:10.464Z,1.10
2022-09-23T14:54:30.368Z,1.00
2022-09-23T14:58:46.961Z,0.95
2022-09-23T15:03:00.082Z,1.00
2022-09-23T15:07:08.987Z,1.70
2022-09-23T15:11:11.095Z,13.00
2022-09-23T15:15:14.830Z,1.85
2022-09-23T15:19:19.885Z,0.90
2022-09-23T15:23:41.552Z,0.93
2022-09-23T15:27:55.759Z,1.30
2022-09-23T15:31:57.892Z,1.25
2022-09-23T15:35:59.369Z,1.30
2022-09-23T15:40:00.934Z,1.88
2022-09-23T15:44:13.053Z,1.30
2022-09-23T15:48:17.869Z,1.70
2022-09-23T15:52:22.676Z,1.60
2022-09-23T15:56:26.905Z,1.55
2022-09-23T16:00:28.561Z,2.05
2022-09-23T16:04:31.377Z,1.42
2022-09-23T16:08:33.272Z,1.58
2022-09-23T16:12:34.969Z,1.20
2022-09-23T16:16:36.487Z,2.30
2022-09-23T16:20:42.233Z,1.70
2022-09-23T16:24:43.973Z,1.95
2022-09-23T16:28:46.996Z,2.05
2022-09-23T16:32:48.657Z,2.50
2022-09-23T16:36:50.159Z,2.58
2022-09-23T16:40:51.776Z,2.55
2022-09-23T16:44:53.264Z,2.60
2022-09-23T16:48:56.247Z,2.63
2022-09-23T16:52:57.880Z,3.25
2022-09-23T16:56:59.413Z,2.53
2022-09-23T17:01:19.466Z,2.20
2022-09-23T17:05:20.899Z,2.30
2022-09-23T17:09:24.863Z,2.50
2022-09-23T17:13:29.476Z,1.98
2022-09-23T17:17:36.971Z,3.15
2022-09-23T17:21:38.874Z,2.38
2022-09-23T17:25:40.253Z,3.25
2022-09-23T17:29:41.648Z,2.35
2022-09-23T17:33:43.480Z,3.22
2022-09-23T17:37:46.700Z,2.40
2022-09-23T17:41:48.156Z,2.55
2022-09-23T17:45:49.870Z,2.60
2022-09-23T17:49:51.918Z,2.53
2022-09-23T17:53:53.365Z,3.00
2022-09-23T17:57:54.880Z,3.28
2022-09-23T18:01:56.475Z,3.63
2022-09-23T18:06:17.092Z,2.38
2022-09-23T18:10:18.525Z,2.75
2022-09-23T18:14:22.130Z,2.72
2022-09-23T18:18:23.525Z,2.80
2022-09-23T18:22:24.920Z,4.55
2022-09-23T18:26:30.187Z,3.53
2022-09-23T18:30:32.171Z,3.38
2022-09-23T18:34:33.630Z,3.38
2022-09-23T18:38:35.559Z,3.60
2022-09-23T18:42:40.317Z,3.95
2022-09-23T18:46:45.536Z,3.13
2022-09-23T18:50:48.834Z,3.90
2022-09-23T18:54:54.962Z,3.95
2022-09-23T18:58:56.653Z,2.92
2022-09-23T19:02:58.558Z,3.22
2022-09-23T19:07:00.260Z,3.47
2022-09-23T19:11:03.267Z,2.70
2022-09-23T19:15:04.961Z,2.60
2022-09-23T19:19:07.114Z,3.08
2022-09-23T19:23:08.495Z,3.92
2022-09-23T19:27:09.870Z,3.13
2022-09-23T19:31:13.995Z,3.00
2022-09-23T19:35:16.050Z,2.80
2022-09-23T19:39:23.286Z,3.28
2022-09-23T19:43:25.121Z,3.50
2022-09-23T19:47:26.503Z,4.60
2022-09-23T19:51:28.289Z,4.40
2022-09-23T19:55:30.228Z,5.65
2022-09-23T19:59:31.673Z,4.40
2022-09-23T20:03:33.409Z,4.30
2022-09-23T20:07:34.867Z,4.57
2022-09-23T20:11:36.371Z,4.18
2022-09-23T20:15:37.946Z,4.65
2022-09-23T20:19:40.519Z,4.32
2022-09-23T20:23:42.504Z,4.07
2022-09-23T20:27:49.482Z,4.25
2022-09-23T20:31:51.152Z,4.03
2022-09-23T20:35:53.619Z,4.60
2022-09-23T20:39:55.112Z,5.10
2022-09-23T20:44:00.602Z,4.45
2022-09-23T20:48:03.246Z,4.40
2022-09-23T20:52:04.707Z,4.78
2022-09-23T20:56:06.592Z,4.47
2022-09-23T21:00:08.865Z,4.53
2022-09-23T21:04:10.649Z,4.45
2022-09-23T21:08:12.511Z,4.03
2022-09-23T21:12:13.879Z,4.65
2022-09-23T21:16:17.127Z,4.95
2022-09-23T21:20:18.659Z,4.68
2022-09-23T21:28:43.976Z,4.80
2022-09-23T21:32:45.356Z,4.68
2022-09-23T21:36:48.085Z,4.88
2022-09-23T21:40:56.731Z,4.93
2022-09-23T21:44:58.188Z,6.10
2022-09-23T21:49:01.971Z,6.65
2022-09-23T21:53:03.385Z,4.63
2022-09-23T21:57:04.830Z,3.95
2022-09-23T22:01:11.945Z,3.90
2022-09-23T22:05:13.462Z,4.13
2022-09-23T22:09:20.283Z,3.80
2022-09-23T22:13:21.906Z,4.25
2022-09-23T22:17:23.670Z,4.38
2022-09-23T22:21:26.912Z,4.47
2022-09-23T22:25:28.861Z,4.07
2022-09-23T22:29:48.847Z,4.05
2022-09-23T22:33:50.618Z,4.50
2022-09-23T22:37:52.023Z,4.65
2022-09-23T22:41:53.653Z,4.35
2022-09-23T22:45:55.038Z,4.82
2022-09-23T22:49:56.511Z,4.97
2022-09-23T22:53:58.053Z,4.15
2022-09-23T22:58:10.576Z,4.18
2022-09-23T23:02:23.938Z,4.28
2022-09-23T23:06:25.352Z,5.13
2022-09-23T23:10:27.223Z,4.78
2022-09-23T23:14:31.270Z,4.47
2022-09-23T23:18:35.290Z,4.25
2022-09-23T23:22:36.677Z,4.82
2022-09-23T23:26:38.077Z,3.78
2022-09-23T23:30:39.461Z,4.60
2022-09-23T23:34:40.826Z,4.47
2022-09-23T23:38:44.354Z,4.60
2022-09-23T23:42:45.765Z,5.18
2022-09-23T23:46:48.107Z,4.65
2022-09-23T23:50:54.705Z,4.00
2022-09-23T23:54:56.177Z,4.85
2022-09-23T23:58:59.590Z,4.90
